createdAt,value
2019-03-26T00:00:53.238Z,424.99
2019-03-26T00:01:54.084Z,425.52
2019-03-26T00:02:53.347Z,424.30
2019-03-26T00:04:05.264Z,425.57
2019-03-26T00:04:54.107Z,425.04
2019-03-26T00:05:53.027Z,423.83
2019-03-26T00:06:53.109Z,424.67
2019-03-26T00:07:53.005Z,427.06
2019-03-26T00:08:53.064Z,424.03
2019-03-26T00:09:52.998Z,426.06
2019-03-26T00:10:52.947Z,423.28
2019-03-26T00:11:52.920Z,424.22
2019-03-26T00:12:52.982Z,425.99
2019-03-26T00:13:52.909Z,423.42
2019-03-26T00:14:52.968Z,424.64
2019-03-26T00:15:52.903Z,425.72
2019-03-26T00:16:52.897Z,423.50
2019-03-26T00:17:52.914Z,428.03
2019-03-26T00:18:52.957Z,425.34
2019-03-26T00:19:52.928Z,424.66
2019-03-26T00:20:52.896Z,425.09
2019-03-26T00:21:52.877Z,422.92
2019-03-26T00:22:52.871Z,425.29
2019-03-26T00:23:52.806Z,426.29
2019-03-26T00:24:52.789Z,424.45
2019-03-26T00:25:52.845Z,428.00
2019-03-26T00:26:52.788Z,430.45
2019-03-26T00:27:52.860Z,423.02
2019-03-26T00:28:52.798Z,423.35
2019-03-26T00:29:52.873Z,427.09
2019-03-26T00:30:52.891Z,425.93
2019-03-26T00:31:52.786Z,423.92
2019-03-26T00:32:52.723Z,424.24
2019-03-26T00:33:52.935Z,424.07
2019-03-26T00:34:52.921Z,423.07
2019-03-26T00:35:53.369Z,423.76
2019-03-26T00:36:53.321Z,423.69
2019-03-26T00:37:52.710Z,427.45
2019-03-26T00:38:52.684Z,425.42
2019-03-26T00:39:52.704Z,425.91
2019-03-26T00:40:52.673Z,423.90
2019-03-26T00:41:52.647Z,424.64
2019-03-26T00:42:52.653Z,424.65
2019-03-26T00:43:52.588Z,423.67
2019-03-26T00:44:52.597Z,423.02
2019-03-26T00:45:52.632Z,430.65
2019-03-26T00:46:52.583Z,425.35
2019-03-26T00:47:52.573Z,425.18
2019-03-26T00:48:52.550Z,424.54
2019-03-26T00:49:52.542Z,422.18
2019-03-26T00:50:52.554Z,429.10
2019-03-26T00:51:52.549Z,422.93
2019-03-26T00:52:52.694Z,423.22
2019-03-26T00:53:52.496Z,425.07
2019-03-26T00:54:52.540Z,427.76
2019-03-26T00:55:52.491Z,424.02
2019-03-26T00:56:52.492Z,424.67
2019-03-26T00:57:52.470Z,425.87
2019-03-26T00:58:52.448Z,423.17
2019-03-26T00:59:52.426Z,422.53
2019-03-26T01:00:52.460Z,422.95
2019-03-26T01:01:52.450Z,424.60
2019-03-26T01:02:52.430Z,423.80
2019-03-26T01:03:55.055Z,423.77
2019-03-26T01:04:52.386Z,422.53
2019-03-26T01:05:52.387Z,422.87
2019-03-26T01:06:52.399Z,422.66
2019-03-26T01:07:52.368Z,423.20
2019-03-26T01:08:52.364Z,428.69
2019-03-26T01:09:52.361Z,424.79
2019-03-26T01:10:52.331Z,423.42
2019-03-26T01:11:52.376Z,422.42
2019-03-26T01:12:52.291Z,423.42
2019-03-26T01:13:52.314Z,423.37
2019-03-26T01:14:52.304Z,424.55
2019-03-26T01:15:52.302Z,423.11
2019-03-26T01:16:52.315Z,424.65
2019-03-26T01:17:52.264Z,425.29
2019-03-26T01:18:52.449Z,424.96
2019-03-26T01:19:52.250Z,423.89
2019-03-26T01:20:52.229Z,424.08
2019-03-26T01:21:52.301Z,425.54
2019-03-26T01:22:52.214Z,423.51
2019-03-26T01:23:52.259Z,425.06
2019-03-26T01:24:52.191Z,424.26
2019-03-26T01:25:52.150Z,425.93
2019-03-26T01:26:52.818Z,423.46
2019-03-26T01:27:52.155Z,423.30
2019-03-26T01:28:52.161Z,423.88
2019-03-26T01:29:52.131Z,423.33
2019-03-26T01:30:52.127Z,425.09
2019-03-26T01:31:52.116Z,423.81
2019-03-26T01:32:52.098Z,423.13
2019-03-26T01:33:52.177Z,423.97
2019-03-26T01:34:52.107Z,424.78
2019-03-26T01:35:52.054Z,422.42
2019-03-26T01:36:52.055Z,423.97
2019-03-26T01:37:52.044Z,424.77
2019-03-26T01:38:52.048Z,422.94
2019-03-26T01:39:52.116Z,422.38
2019-03-26T01:40:52.021Z,422.45
2019-03-26T01:41:52.003Z,422.68
2019-03-26T01:42:52.024Z,422.91
2019-03-26T01:43:52.893Z,423.80
2019-03-26T01:44:52.003Z,423.33
2019-03-26T01:45:51.964Z,423.28
2019-03-26T01:46:51.964Z,423.56
2019-03-26T01:47:51.935Z,423.83
2019-03-26T01:48:51.974Z,424.58
2019-03-26T01:49:52.008Z,423.15
2019-03-26T01:50:51.909Z,430.93
2019-03-26T01:51:51.906Z,422.76
2019-03-26T01:52:51.926Z,424.50
2019-03-26T01:53:51.872Z,427.01
2019-03-26T01:54:51.942Z,422.71
2019-03-26T01:55:51.966Z,423.08
2019-03-26T01:56:51.914Z,423.54
2019-03-26T01:57:51.845Z,422.96
2019-03-26T01:58:51.848Z,423.86
2019-03-26T01:59:51.869Z,423.37
2019-03-26T02:00:51.811Z,424.21
2019-03-26T02:01:51.800Z,422.77
2019-03-26T02:02:51.810Z,422.99
2019-03-26T02:03:51.809Z,423.91
2019-03-26T02:04:59.798Z,423.40
2019-03-26T02:05:52.750Z,422.85
2019-03-26T02:06:51.747Z,422.98
2019-03-26T02:07:51.749Z,424.04
2019-03-26T02:08:51.727Z,424.38
2019-03-26T02:09:51.760Z,424.47
2019-03-26T02:10:51.731Z,424.46
2019-03-26T02:11:51.721Z,422.50
2019-03-26T02:12:51.724Z,422.56
2019-03-26T02:13:51.661Z,424.08
2019-03-26T02:14:51.653Z,424.42
2019-03-26T02:15:51.702Z,424.68
2019-03-26T02:16:51.659Z,422.94
2019-03-26T02:17:51.627Z,424.33
2019-03-26T02:18:51.619Z,421.64
2019-03-26T02:19:51.614Z,422.57
2019-03-26T02:20:51.590Z,423.06
2019-03-26T02:21:51.603Z,424.55
2019-03-26T02:22:51.599Z,422.50
2019-03-26T02:23:51.675Z,423.75
2019-03-26T02:24:51.541Z,423.05
2019-03-26T02:25:51.587Z,422.69
2019-03-26T02:26:51.636Z,423.38
2019-03-26T02:27:51.554Z,422.55
2019-03-26T02:28:51.543Z,426.31
2019-03-26T02:29:51.565Z,423.18
2019-03-26T02:30:51.486Z,424.33
2019-03-26T02:31:51.499Z,423.87
2019-03-26T02:32:51.495Z,422.11
2019-03-26T02:33:51.497Z,423.37
2019-03-26T02:34:51.461Z,424.07
2019-03-26T02:35:51.452Z,426.71
2019-03-26T02:36:51.428Z,422.21
2019-03-26T02:37:51.436Z,424.61
2019-03-26T02:38:51.430Z,424.10
2019-03-26T02:39:51.421Z,424.51
2019-03-26T02:40:51.372Z,426.66
2019-03-26T02:41:51.430Z,423.39
2019-03-26T02:42:51.417Z,423.90
2019-03-26T02:43:51.441Z,425.66
2019-03-26T02:44:51.342Z,426.69
2019-03-26T02:45:51.359Z,422.65
2019-03-26T02:46:51.338Z,423.70
2019-03-26T02:47:51.325Z,428.08
2019-03-26T02:48:51.342Z,424.08
2019-03-26T02:49:51.372Z,427.83
2019-03-26T02:50:51.297Z,424.29
2019-03-26T02:51:51.283Z,423.80
2019-03-26T02:52:51.255Z,424.59
2019-03-26T02:53:51.337Z,423.00
2019-03-26T02:54:51.246Z,423.02
2019-03-26T02:55:51.273Z,427.37
2019-03-26T02:56:51.224Z,424.74
2019-03-26T02:57:51.237Z,425.41
2019-03-26T02:58:51.203Z,422.73
2019-03-26T02:59:51.195Z,422.54
2019-03-26T03:00:51.190Z,422.74
2019-03-26T03:01:51.191Z,425.27
2019-03-26T03:02:51.179Z,422.38
2019-03-26T03:03:51.150Z,422.86
2019-03-26T03:04:51.160Z,423.02
2019-03-26T03:05:51.173Z,425.96
2019-03-26T03:06:51.193Z,423.56
2019-03-26T03:07:51.103Z,421.65
2019-03-26T03:08:51.122Z,423.76
2019-03-26T03:09:51.100Z,423.78
2019-03-26T03:10:51.081Z,423.59
2019-03-26T03:11:51.121Z,427.21
2019-03-26T03:12:51.145Z,424.00
2019-03-26T03:13:51.049Z,425.01
2019-03-26T03:14:51.058Z,423.48
2019-03-26T03:15:51.050Z,422.96
2019-03-26T03:16:51.023Z,422.82
2019-03-26T03:17:50.989Z,422.11
2019-03-26T03:18:51.060Z,422.87
2019-03-26T03:19:50.991Z,424.37
2019-03-26T03:20:50.978Z,423.85
2019-03-26T03:21:50.985Z,423.07
2019-03-26T03:22:50.960Z,424.22
2019-03-26T03:23:50.956Z,425.77
2019-03-26T03:24:50.932Z,425.24
2019-03-26T03:25:50.947Z,426.90
2019-03-26T03:26:50.940Z,424.77
2019-03-26T03:27:50.912Z,422.92
2019-03-26T03:28:50.918Z,425.50
2019-03-26T03:29:50.925Z,425.64
2019-03-26T03:30:50.872Z,426.33
2019-03-26T03:31:50.967Z,425.01
2019-03-26T03:32:50.879Z,426.69
2019-03-26T03:33:50.862Z,423.20
2019-03-26T03:34:50.843Z,424.18
2019-03-26T03:35:52.909Z,425.84
2019-03-26T03:36:50.799Z,423.50
2019-03-26T03:37:50.812Z,424.78
2019-03-26T03:38:50.822Z,422.73
2019-03-26T03:39:50.834Z,422.56
2019-03-26T03:40:50.780Z,425.02
2019-03-26T03:41:50.769Z,423.46
2019-03-26T03:42:50.787Z,425.11
2019-03-26T03:43:50.745Z,424.00
2019-03-26T03:44:50.724Z,423.83
2019-03-26T03:45:50.720Z,423.19
2019-03-26T03:46:50.713Z,424.28
2019-03-26T03:47:50.727Z,425.04
2019-03-26T03:48:50.698Z,425.35
2019-03-26T03:49:50.749Z,423.31
2019-03-26T03:50:50.707Z,424.34
2019-03-26T03:51:50.668Z,425.62
2019-03-26T03:52:50.682Z,421.87
2019-03-26T03:53:50.644Z,430.97
2019-03-26T03:54:50.610Z,423.51
2019-03-26T03:55:50.726Z,424.83
2019-03-26T03:56:50.628Z,425.79
2019-03-26T03:57:52.774Z,426.35
2019-03-26T03:58:50.625Z,425.19
2019-03-26T03:59:51.396Z,424.09
2019-03-26T04:00:50.574Z,423.60
2019-03-26T04:01:50.613Z,425.50
2019-03-26T04:02:50.557Z,424.25
2019-03-26T04:03:50.549Z,423.04
2019-03-26T04:04:50.537Z,424.00
2019-03-26T04:05:50.527Z,428.90
2019-03-26T04:06:50.512Z,424.50
2019-03-26T04:07:50.513Z,423.35
2019-03-26T04:08:50.502Z,423.84
2019-03-26T04:09:50.492Z,423.28
2019-03-26T04:10:50.503Z,423.84
2019-03-26T04:11:50.488Z,424.77
2019-03-26T04:12:50.458Z,423.30
2019-03-26T04:13:50.437Z,422.98
2019-03-26T04:14:50.424Z,424.29
2019-03-26T04:15:50.404Z,423.03
2019-03-26T04:16:50.394Z,424.63
2019-03-26T04:17:50.411Z,428.79
2019-03-26T04:18:50.365Z,423.82
2019-03-26T04:19:50.352Z,423.00
2019-03-26T04:20:50.347Z,425.50
2019-03-26T04:21:50.499Z,422.68
2019-03-26T04:22:50.395Z,425.16
2019-03-26T04:23:52.243Z,424.09
2019-03-26T04:24:50.868Z,426.24
2019-03-26T04:25:50.860Z,427.12
2019-03-26T04:26:50.354Z,423.25
2019-03-26T04:27:50.303Z,422.77
2019-03-26T04:28:50.282Z,423.99
2019-03-26T04:29:50.275Z,424.46
2019-03-26T04:30:50.264Z,425.13
2019-03-26T04:31:50.298Z,423.79
2019-03-26T04:32:50.221Z,425.82
2019-03-26T04:33:50.295Z,424.13
2019-03-26T04:34:50.905Z,425.50
2019-03-26T04:35:50.211Z,426.16
2019-03-26T04:36:51.222Z,424.86
2019-03-26T04:37:50.179Z,425.79
2019-03-26T04:38:50.205Z,424.40
2019-03-26T04:39:50.195Z,427.25
2019-03-26T04:40:50.328Z,424.55
2019-03-26T04:41:50.141Z,423.90
2019-03-26T04:42:50.116Z,424.54
2019-03-26T04:43:50.129Z,425.54
2019-03-26T04:44:50.156Z,424.18
2019-03-26T04:45:50.134Z,425.39
2019-03-26T04:46:50.094Z,425.07
2019-03-26T04:47:50.088Z,423.88
2019-03-26T04:48:50.083Z,424.71
2019-03-26T04:49:50.068Z,425.45
2019-03-26T04:50:50.044Z,423.66
2019-03-26T04:51:50.037Z,426.57
2019-03-26T04:52:50.042Z,424.45
2019-03-26T04:53:50.042Z,424.80
2019-03-26T04:54:50.021Z,426.20
2019-03-26T04:55:50.004Z,426.07
2019-03-26T04:56:50.009Z,424.92
2019-03-26T04:57:49.983Z,427.56
2019-03-26T04:58:49.972Z,425.66
2019-03-26T04:59:49.948Z,427.01
2019-03-26T05:00:49.923Z,425.56
2019-03-26T05:01:50.003Z,426.97
2019-03-26T05:02:49.922Z,427.04
2019-03-26T05:03:49.896Z,431.01
2019-03-26T05:04:49.890Z,425.09
2019-03-26T05:05:49.894Z,426.18
2019-03-26T05:06:49.942Z,426.52
2019-03-26T05:07:49.865Z,423.57
2019-03-26T05:08:49.886Z,424.61
2019-03-26T05:09:49.863Z,424.52
2019-03-26T05:10:49.827Z,427.03
2019-03-26T05:11:49.847Z,424.39
2019-03-26T05:12:49.840Z,424.81
2019-03-26T05:13:49.821Z,425.31
2019-03-26T05:14:49.818Z,425.81
2019-03-26T05:15:49.812Z,430.28
2019-03-26T05:16:49.788Z,424.99
2019-03-26T05:17:49.746Z,425.13
2019-03-26T05:18:49.765Z,424.34
2019-03-26T05:19:49.800Z,427.44
2019-03-26T05:20:49.858Z,430.39
2019-03-26T05:21:49.783Z,424.66
2019-03-26T05:22:49.726Z,424.89
2019-03-26T05:23:51.926Z,425.04
2019-03-26T05:24:49.696Z,423.76
2019-03-26T05:25:49.678Z,428.23
2019-03-26T05:26:49.694Z,425.35
2019-03-26T05:27:49.642Z,424.90
2019-03-26T05:28:49.649Z,423.30
2019-03-26T05:29:49.642Z,424.54
2019-03-26T05:30:49.680Z,425.08
2019-03-26T05:31:49.677Z,425.14
2019-03-26T05:32:51.486Z,423.28
2019-03-26T05:34:04.675Z,426.48
2019-03-26T05:34:57.945Z,427.79
2019-03-26T05:36:01.763Z,424.20
2019-03-26T05:36:51.802Z,427.82
2019-03-26T05:37:49.561Z,427.23
2019-03-26T05:38:49.580Z,425.30
2019-03-26T05:39:49.534Z,425.42
2019-03-26T05:40:49.588Z,424.38
2019-03-26T05:41:49.515Z,427.12
2019-03-26T05:42:49.632Z,430.01
2019-03-26T05:43:49.513Z,429.23
2019-03-26T05:44:49.499Z,424.83
2019-03-26T05:45:49.733Z,431.53
2019-03-26T05:46:49.481Z,425.28
2019-03-26T05:47:49.461Z,424.91
2019-03-26T05:48:49.451Z,425.73
2019-03-26T05:49:49.442Z,425.75
2019-03-26T05:50:49.452Z,428.57
2019-03-26T05:51:49.403Z,427.54
2019-03-26T05:52:49.449Z,427.75
2019-03-26T05:53:49.399Z,427.34
2019-03-26T05:54:49.379Z,425.58
2019-03-26T05:55:49.388Z,425.91
2019-03-26T05:56:49.366Z,429.97
2019-03-26T05:57:49.354Z,427.69
2019-03-26T05:58:49.351Z,425.00
2019-03-26T05:59:49.337Z,427.80
2019-03-26T06:00:49.321Z,424.24
2019-03-26T06:01:49.339Z,428.07
2019-03-26T06:02:49.294Z,424.13
2019-03-26T06:03:49.296Z,427.09
2019-03-26T06:04:49.349Z,425.42
2019-03-26T06:05:51.067Z,425.82
2019-03-26T06:06:49.382Z,424.02
2019-03-26T06:07:49.267Z,425.91
2019-03-26T06:08:49.234Z,429.14
2019-03-26T06:09:49.257Z,427.10
2019-03-26T06:10:49.251Z,429.15
2019-03-26T06:11:49.209Z,427.85
2019-03-26T06:12:50.407Z,425.67
2019-03-26T06:13:49.218Z,427.75
2019-03-26T06:14:49.263Z,426.23
2019-03-26T06:15:49.244Z,425.34
2019-03-26T06:16:49.191Z,425.96
2019-03-26T06:17:49.175Z,427.09
2019-03-26T06:18:49.149Z,426.73
2019-03-26T06:19:50.385Z,427.63
2019-03-26T06:20:49.142Z,428.93
2019-03-26T06:21:49.139Z,425.57
2019-03-26T06:22:49.120Z,430.01
2019-03-26T06:23:49.085Z,430.32
2019-03-26T06:24:49.070Z,425.59
2019-03-26T06:25:49.059Z,425.32
2019-03-26T06:26:49.072Z,424.21
2019-03-26T06:27:49.085Z,426.48
2019-03-26T06:28:49.091Z,425.71
2019-03-26T06:29:49.010Z,425.41
2019-03-26T06:30:49.053Z,426.79
2019-03-26T06:31:49.010Z,427.88
2019-03-26T06:32:49.032Z,427.88
2019-03-26T06:33:48.986Z,425.05
2019-03-26T06:34:48.964Z,430.12
2019-03-26T06:35:48.952Z,427.93
2019-03-26T06:36:48.982Z,429.55
2019-03-26T06:37:48.944Z,429.29
2019-03-26T06:38:48.933Z,425.02
2019-03-26T06:39:48.982Z,428.42
2019-03-26T06:40:48.898Z,426.01
2019-03-26T06:41:49.434Z,427.19
2019-03-26T06:42:48.933Z,424.63
2019-03-26T06:43:49.458Z,426.60
2019-03-26T06:44:49.509Z,426.42
2019-03-26T06:45:48.848Z,427.74
2019-03-26T06:46:48.924Z,427.68
2019-03-26T06:47:48.847Z,426.87
2019-03-26T06:48:48.856Z,427.34
2019-03-26T06:49:48.837Z,426.48
2019-03-26T06:50:48.802Z,428.92
2019-03-26T06:51:48.803Z,428.89
2019-03-26T06:52:48.820Z,425.65
2019-03-26T06:53:48.948Z,427.71
2019-03-26T06:54:51.525Z,427.89
2019-03-26T06:55:48.800Z,429.30
2019-03-26T06:56:48.761Z,429.77
2019-03-26T06:57:48.740Z,430.58
2019-03-26T06:58:48.789Z,428.57
2019-03-26T06:59:48.788Z,427.01
2019-03-26T07:00:48.703Z,426.46
2019-03-26T07:01:48.732Z,426.91
2019-03-26T07:02:48.711Z,428.53
2019-03-26T07:03:48.671Z,425.21
2019-03-26T07:04:48.675Z,424.79
2019-03-26T07:05:48.663Z,426.47
2019-03-26T07:06:48.620Z,426.54
2019-03-26T07:07:48.624Z,426.30
2019-03-26T07:08:48.654Z,427.24
2019-03-26T07:09:48.634Z,429.52
2019-03-26T07:10:48.643Z,426.63
2019-03-26T07:11:48.597Z,424.24
2019-03-26T07:12:48.671Z,428.08
2019-03-26T07:13:48.584Z,429.26
2019-03-26T07:14:48.581Z,427.28
2019-03-26T07:15:48.568Z,426.26
2019-03-26T07:16:48.572Z,429.95
2019-03-26T07:17:48.934Z,427.26
2019-03-26T07:18:48.892Z,426.69
2019-03-26T07:19:48.493Z,425.63
2019-03-26T07:20:48.490Z,426.73
2019-03-26T07:21:49.919Z,427.64
2019-03-26T07:22:48.496Z,426.53
2019-03-26T07:23:48.469Z,428.02
2019-03-26T07:24:48.435Z,425.74
2019-03-26T07:25:48.441Z,427.73
2019-03-26T07:26:48.461Z,426.26
2019-03-26T07:27:48.397Z,427.29
2019-03-26T07:28:48.409Z,425.62
2019-03-26T07:29:48.378Z,426.29
2019-03-26T07:30:48.369Z,426.36
2019-03-26T07:31:48.392Z,427.54
2019-03-26T07:32:48.353Z,429.34
2019-03-26T07:33:48.343Z,427.75
2019-03-26T07:34:48.347Z,427.99
2019-03-26T07:35:48.373Z,429.76
2019-03-26T07:36:48.301Z,427.39
2019-03-26T07:37:48.330Z,428.39
2019-03-26T07:38:48.316Z,426.92
2019-03-26T07:39:48.419Z,428.68
2019-03-26T07:40:48.306Z,426.76
2019-03-26T07:41:48.314Z,429.38
2019-03-26T07:42:48.246Z,428.02
2019-03-26T07:43:48.334Z,429.60
2019-03-26T07:44:48.265Z,428.75
2019-03-26T07:45:48.237Z,428.57
2019-03-26T07:46:48.212Z,429.15
2019-03-26T07:47:48.223Z,429.02
2019-03-26T07:48:48.518Z,431.50
2019-03-26T07:49:48.177Z,429.29
2019-03-26T07:50:48.187Z,429.92
2019-03-26T07:51:48.176Z,428.00
2019-03-26T07:52:48.152Z,427.97
2019-03-26T07:53:48.143Z,426.72
2019-03-26T07:54:48.187Z,428.01
2019-03-26T07:55:48.108Z,428.24
2019-03-26T07:56:48.112Z,429.22
2019-03-26T07:57:48.096Z,428.44
2019-03-26T07:58:48.109Z,429.24
2019-03-26T07:59:48.066Z,429.22
2019-03-26T08:00:48.045Z,429.30
2019-03-26T08:01:48.209Z,427.54
2019-03-26T08:02:48.103Z,428.78
2019-03-26T08:03:48.063Z,428.30
2019-03-26T08:04:48.057Z,428.82
2019-03-26T08:05:48.034Z,429.00
2019-03-26T08:06:48.071Z,427.51
2019-03-26T08:07:57.826Z,429.25
2019-03-26T08:08:49.065Z,427.14
2019-03-26T08:09:48.019Z,428.80
2019-03-26T08:10:48.095Z,428.09
2019-03-26T08:11:47.943Z,428.49
2019-03-26T08:12:47.953Z,427.86
2019-03-26T08:13:47.948Z,428.02
2019-03-26T08:14:48.071Z,428.25
2019-03-26T08:15:47.967Z,428.59
2019-03-26T08:16:47.957Z,428.86
2019-03-26T08:17:47.957Z,428.61
2019-03-26T08:18:47.872Z,427.61
2019-03-26T08:19:47.937Z,428.82
2019-03-26T08:20:47.896Z,427.67
2019-03-26T08:21:47.907Z,427.99
2019-03-26T08:22:47.841Z,428.44
2019-03-26T08:23:47.831Z,427.07
2019-03-26T08:24:48.708Z,428.37
2019-03-26T08:25:47.856Z,428.09
2019-03-26T08:26:51.793Z,428.45
2019-03-26T08:27:48.542Z,427.23
2019-03-26T08:28:47.774Z,428.23
2019-03-26T08:29:47.766Z,427.67
2019-03-26T08:30:50.148Z,428.63
2019-03-26T08:31:47.805Z,425.90
2019-03-26T08:32:47.762Z,427.55
2019-03-26T08:33:47.736Z,426.87
2019-03-26T08:34:47.702Z,426.46
2019-03-26T08:35:47.789Z,427.43
2019-03-26T08:36:47.822Z,426.77
2019-03-26T08:37:47.690Z,427.26
2019-03-26T08:38:47.663Z,428.95
2019-03-26T08:39:47.706Z,426.93
2019-03-26T08:40:47.672Z,427.47
2019-03-26T08:41:47.680Z,427.42
2019-03-26T08:42:47.653Z,426.51
2019-03-26T08:43:47.661Z,427.26
2019-03-26T08:44:47.613Z,427.15
2019-03-26T08:45:47.580Z,427.01
2019-03-26T08:46:47.587Z,427.91
2019-03-26T08:47:48.097Z,427.79
2019-03-26T08:48:47.577Z,427.63
2019-03-26T08:49:47.583Z,427.51
2019-03-26T08:50:47.567Z,428.89
2019-03-26T08:51:47.642Z,429.53
2019-03-26T08:52:47.558Z,427.97
2019-03-26T08:53:47.526Z,430.58
2019-03-26T08:54:47.538Z,428.71
2019-03-26T08:55:47.509Z,430.20
2019-03-26T08:56:47.520Z,429.61
2019-03-26T08:57:47.465Z,429.71
2019-03-26T08:58:47.454Z,428.79
2019-03-26T08:59:47.484Z,428.06
2019-03-26T09:00:47.485Z,428.30
2019-03-26T09:01:47.517Z,429.06
2019-03-26T09:02:47.574Z,429.26
2019-03-26T09:03:47.393Z,427.59
2019-03-26T09:04:47.410Z,427.49
2019-03-26T09:05:47.395Z,428.31
2019-03-26T09:06:47.966Z,427.18
2019-03-26T09:07:47.426Z,429.08
2019-03-26T09:08:47.362Z,428.99
2019-03-26T09:09:47.328Z,427.46
2019-03-26T09:10:52.025Z,428.20
2019-03-26T09:11:47.311Z,429.65
2019-03-26T09:12:47.319Z,429.98
2019-03-26T09:13:47.320Z,429.67
2019-03-26T09:14:47.306Z,429.96
2019-03-26T09:15:47.287Z,428.23
2019-03-26T09:16:47.272Z,427.74
2019-03-26T09:17:47.268Z,428.66
2019-03-26T09:18:47.255Z,426.99
2019-03-26T09:19:47.245Z,426.69
2019-03-26T09:20:47.235Z,429.34
2019-03-26T09:21:47.246Z,429.33
2019-03-26T09:22:47.207Z,428.30
2019-03-26T09:23:47.191Z,428.44
2019-03-26T09:24:47.203Z,430.61
2019-03-26T09:25:47.185Z,429.63
2019-03-26T09:26:47.187Z,428.16
2019-03-26T09:27:47.174Z,429.84
2019-03-26T09:28:48.029Z,429.17
2019-03-26T09:29:47.142Z,429.49
2019-03-26T09:30:47.168Z,428.98
2019-03-26T09:31:47.106Z,427.61
2019-03-26T09:32:47.087Z,428.10
2019-03-26T09:33:47.066Z,427.52
2019-03-26T09:34:47.118Z,428.67
2019-03-26T09:35:47.071Z,426.60
2019-03-26T09:36:47.073Z,427.60
2019-03-26T09:37:47.043Z,429.31
2019-03-26T09:38:47.030Z,429.99
2019-03-26T09:39:47.028Z,428.71
2019-03-26T09:40:47.028Z,424.14
2019-03-26T09:41:47.000Z,429.97
2019-03-26T09:42:46.979Z,429.71
2019-03-26T09:43:46.985Z,428.91
2019-03-26T09:44:47.000Z,429.29
2019-03-26T09:45:47.023Z,428.16
2019-03-26T09:46:47.355Z,429.29
2019-03-26T09:47:47.012Z,425.91
2019-03-26T09:48:46.958Z,429.22
2019-03-26T09:49:46.942Z,430.42
2019-03-26T09:50:46.958Z,429.27
2019-03-26T09:51:46.961Z,428.46
2019-03-26T09:52:46.937Z,429.34
2019-03-26T09:53:46.894Z,429.45
2019-03-26T09:54:46.881Z,429.26
2019-03-26T09:55:46.943Z,428.98
2019-03-26T09:56:46.873Z,430.17
2019-03-26T09:57:46.847Z,429.88
2019-03-26T09:58:46.863Z,429.29
2019-03-26T09:59:46.906Z,428.91
2019-03-26T10:00:46.934Z,430.35
2019-03-26T10:01:46.805Z,428.28
2019-03-26T10:02:46.854Z,428.46
2019-03-26T10:03:46.797Z,428.30
2019-03-26T10:04:46.769Z,428.63
2019-03-26T10:05:46.802Z,429.33
2019-03-26T10:06:46.739Z,427.40
2019-03-26T10:07:46.767Z,427.61
2019-03-26T10:08:52.494Z,428.37
2019-03-26T10:09:47.731Z,430.30
2019-03-26T10:10:46.707Z,429.14
2019-03-26T10:11:46.704Z,427.65
2019-03-26T10:12:46.679Z,427.58
2019-03-26T10:13:46.763Z,427.13
2019-03-26T10:14:46.667Z,428.10
2019-03-26T10:15:46.640Z,429.64
2019-03-26T10:16:46.650Z,428.64
2019-03-26T10:17:46.629Z,428.48
2019-03-26T10:18:46.626Z,426.02
2019-03-26T10:19:46.644Z,429.76
2019-03-26T10:20:46.603Z,428.35
2019-03-26T10:21:46.587Z,427.56
2019-03-26T10:22:46.571Z,426.49
2019-03-26T10:23:46.569Z,431.15
2019-03-26T10:24:46.587Z,428.93
2019-03-26T10:25:46.605Z,428.55
2019-03-26T10:26:46.573Z,430.40
2019-03-26T10:27:46.507Z,429.14
2019-03-26T10:28:46.555Z,430.51
2019-03-26T10:29:46.502Z,429.86
2019-03-26T10:30:46.508Z,429.91
2019-03-26T10:31:46.499Z,428.81
2019-03-26T10:32:46.459Z,429.94
2019-03-26T10:33:46.465Z,430.00
2019-03-26T10:34:46.469Z,429.90
2019-03-26T10:35:46.449Z,430.42
2019-03-26T10:36:46.455Z,426.57
2019-03-26T10:37:46.399Z,430.73
2019-03-26T10:38:46.451Z,430.37
2019-03-26T10:39:46.391Z,429.42
2019-03-26T10:40:46.406Z,430.57
2019-03-26T10:41:46.371Z,431.07
2019-03-26T10:42:46.395Z,429.25
2019-03-26T10:43:46.340Z,429.98
2019-03-26T10:44:46.339Z,430.04
2019-03-26T10:45:46.331Z,430.70
2019-03-26T10:46:46.372Z,429.15
2019-03-26T10:47:46.329Z,429.45
2019-03-26T10:48:46.340Z,431.55
2019-03-26T10:49:46.287Z,429.34
2019-03-26T10:50:46.282Z,429.54
2019-03-26T10:51:46.292Z,429.55
2019-03-26T10:52:46.331Z,429.01
2019-03-26T10:53:46.258Z,430.13
2019-03-26T10:54:46.224Z,429.46
2019-03-26T10:55:46.286Z,428.96
2019-03-26T10:56:46.231Z,429.42
2019-03-26T10:57:46.232Z,429.41
2019-03-26T10:58:46.191Z,429.94
2019-03-26T10:59:46.210Z,429.49
2019-03-26T11:00:46.188Z,429.33
2019-03-26T11:01:46.168Z,429.09
2019-03-26T11:02:46.138Z,428.88
2019-03-26T11:03:46.172Z,428.49
2019-03-26T11:04:46.133Z,427.92
2019-03-26T11:05:46.163Z,430.80
2019-03-26T11:06:46.102Z,425.26
2019-03-26T11:07:46.111Z,428.41
2019-03-26T11:08:46.083Z,428.43
2019-03-26T11:09:46.087Z,429.20
2019-03-26T11:10:46.092Z,428.06
2019-03-26T11:11:46.034Z,427.82
2019-03-26T11:12:46.061Z,428.65
2019-03-26T11:13:46.050Z,425.82
2019-03-26T11:14:46.032Z,428.49
2019-03-26T11:15:46.101Z,428.58
2019-03-26T11:16:45.995Z,427.34
2019-03-26T11:17:45.995Z,429.74
2019-03-26T11:18:45.990Z,427.05
2019-03-26T11:19:46.511Z,429.06
2019-03-26T11:20:45.958Z,427.12
2019-03-26T11:21:45.955Z,429.11
2019-03-26T11:22:45.950Z,428.34
2019-03-26T11:23:45.946Z,428.01
2019-03-26T11:24:45.952Z,430.18
2019-03-26T11:25:45.952Z,428.18
2019-03-26T11:26:45.888Z,428.35
2019-03-26T11:27:45.901Z,429.79
2019-03-26T11:28:45.891Z,427.43
2019-03-26T11:29:45.864Z,428.98
2019-03-26T11:30:45.851Z,427.13
2019-03-26T11:31:45.853Z,428.60
2019-03-26T11:32:45.826Z,428.17
2019-03-26T11:33:45.829Z,429.35
2019-03-26T11:34:45.805Z,427.04
2019-03-26T11:35:45.851Z,429.02
2019-03-26T11:36:45.835Z,427.44
2019-03-26T11:37:45.779Z,430.25
2019-03-26T11:38:45.788Z,432.08
2019-03-26T11:39:45.775Z,433.26
2019-03-26T11:40:45.781Z,431.20
2019-03-26T11:41:45.757Z,431.45
2019-03-26T11:42:45.719Z,427.98
2019-03-26T11:43:45.704Z,430.07
2019-03-26T11:44:45.702Z,428.13
2019-03-26T11:45:45.708Z,431.68
2019-03-26T11:46:45.686Z,431.79
2019-03-26T11:47:45.666Z,430.58
2019-03-26T11:48:45.713Z,431.93
2019-03-26T11:49:45.666Z,432.62
2019-03-26T11:50:45.635Z,429.12
2019-03-26T11:51:45.640Z,433.15
2019-03-26T11:52:45.624Z,429.15
2019-03-26T11:53:45.595Z,432.84
2019-03-26T11:54:45.598Z,429.49
2019-03-26T11:55:45.664Z,431.06
2019-03-26T11:56:45.588Z,430.74
2019-03-26T11:57:45.604Z,433.16
2019-03-26T11:58:45.567Z,431.42
2019-03-26T11:59:45.556Z,433.29
2019-03-26T12:00:45.532Z,429.07
2019-03-26T12:01:45.548Z,430.83
2019-03-26T12:02:45.519Z,435.85
2019-03-26T12:03:45.516Z,435.05
2019-03-26T12:04:45.513Z,433.24
2019-03-26T12:05:45.463Z,426.16
2019-03-26T12:06:45.470Z,431.79
2019-03-26T12:07:45.453Z,431.50
2019-03-26T12:08:45.455Z,432.00
2019-03-26T12:09:46.803Z,429.41
2019-03-26T12:10:45.461Z,432.50
2019-03-26T12:11:45.461Z,430.64
2019-03-26T12:12:45.401Z,429.01
2019-03-26T12:13:45.417Z,435.53
2019-03-26T12:14:45.418Z,429.20
2019-03-26T12:15:45.464Z,431.33
2019-03-26T12:16:45.360Z,433.89
2019-03-26T12:17:45.348Z,429.27
2019-03-26T12:18:45.343Z,430.34
2019-03-26T12:19:45.352Z,432.55
2019-03-26T12:20:45.338Z,430.47
2019-03-26T12:21:45.310Z,432.39
2019-03-26T12:22:45.297Z,433.45
2019-03-26T12:23:45.302Z,431.66
2019-03-26T12:24:45.288Z,430.80
2019-03-26T12:25:45.301Z,429.76
2019-03-26T12:26:45.931Z,430.24
2019-03-26T12:27:45.273Z,433.04
2019-03-26T12:28:45.235Z,436.33